sensor_id;sensor_type;location;lat;lon;timestamp;pressure;altitude;pressure_sealevel;temperature;humidity
64889;BME280;51386;53.082;8.816;2023-02-13T00:00:33;103779.91;;;13.54;60.95
64889;BME280;51386;53.082;8.816;2023-02-13T00:03:01;103773.63;;;13.55;60.65
64889;BME280;51386;53.082;8.816;2023-02-13T00:05:28;103782.56;;;13.54;60.52
64889;BME280;51386;53.082;8.816;2023-02-13T00:07:55;103774.72;;;13.53;60.62
64889;BME280;51386;53.082;8.816;2023-02-13T00:10:24;103768.69;;;13.51;60.65
64889;BME280;51386;53.082;8.816;2023-02-13T00:12:51;103775.06;;;13.48;60.45
64889;BME280;51386;53.082;8.816;2023-02-13T00:15:18;103767.25;;;13.47;60.52
64889;BME280;51386;53.082;8.816;2023-02-13T00:17:45;103767.25;;;13.47;60.34
64889;BME280;51386;53.082;8.816;2023-02-13T00:20:12;103756.69;;;13.47;60.30
64889;BME280;51386;53.082;8.816;2023-02-13T00:22:40;103759.41;;;13.45;60.35
64889;BME280;51386;53.082;8.816;2023-02-13T00:25:08;103756.91;;;13.44;60.52
64889;BME280;51386;53.082;8.816;2023-02-13T00:27:36;103763.03;;;13.44;60.32
64889;BME280;51386;53.082;8.816;2023-02-13T00:30:05;103751.63;;;13.44;60.58
64889;BME280;51386;53.082;8.816;2023-02-13T00:32:33;103760.28;;;13.46;60.62
64889;BME280;51386;53.082;8.816;2023-02-13T00:34:59;103747.16;;;13.44;60.39
64889;BME280;51386;53.082;8.816;2023-02-13T00:37:26;103754.97;;;13.46;60.46
64889;BME280;51386;53.082;8.816;2023-02-13T00:39:53;103755.81;;;13.46;60.32
64889;BME280;51386;53.082;8.816;2023-02-13T00:42:21;103753.91;;;13.48;60.44
64889;BME280;51386;53.082;8.816;2023-02-13T00:44:53;103753.91;;;13.48;60.35
64889;BME280;51386;53.082;8.816;2023-02-13T00:47:21;103762.56;;;13.50;60.57
64889;BME280;51386;53.082;8.816;2023-02-13T00:49:48;103758.97;;;13.51;60.62
64889;BME280;51386;53.082;8.816;2023-02-13T00:52:15;103761.38;;;13.54;60.61
64889;BME280;51386;53.082;8.816;2023-02-13T00:54:42;103767.38;;;13.56;60.70
64889;BME280;51386;53.082;8.816;2023-02-13T00:57:09;103759.31;;;13.58;60.55
64889;BME280;51386;53.082;8.816;2023-02-13T00:59:35;103758.59;;;13.56;60.33
64889;BME280;51386;53.082;8.816;2023-02-13T01:02:04;103760.41;;;13.55;60.15
64889;BME280;51386;53.082;8.816;2023-02-13T01:04:31;103764.03;;;13.54;60.39
64889;BME280;51386;53.082;8.816;2023-02-13T01:06:58;103770.13;;;13.55;60.47
64889;BME280;51386;53.082;8.816;2023-02-13T01:09:25;103769.91;;;13.58;60.75
64889;BME280;51386;53.082;8.816;2023-02-13T01:11:52;103754.66;;;13.62;60.57
64889;BME280;51386;53.082;8.816;2023-02-13T01:14:19;103757.03;;;13.65;60.56
64889;BME280;51386;53.082;8.816;2023-02-13T01:16:46;103761.38;;;13.66;60.39
64889;BME280;51386;53.082;8.816;2023-02-13T01:19:14;103763.78;;;13.69;60.42
64889;BME280;51386;53.082;8.816;2023-02-13T01:21:42;103763.66;;;13.70;59.94
64889;BME280;51386;53.082;8.816;2023-02-13T01:24:09;103761.38;;;13.66;60.02
64889;BME280;51386;53.082;8.816;2023-02-13T01:26:37;103756.31;;;13.63;60.23
64889;BME280;51386;53.082;8.816;2023-02-13T01:29:04;103758.00;;;13.64;60.23
64889;BME280;51386;53.082;8.816;2023-02-13T01:31:31;103748.38;;;13.63;60.11
64889;BME280;51386;53.082;8.816;2023-02-13T01:33:58;103754.66;;;13.62;60.09
64889;BME280;51386;53.082;8.816;2023-02-13T01:36:27;103749.34;;;13.62;59.86
64889;BME280;51386;53.082;8.816;2023-02-13T01:38:56;103746.00;;;13.60;59.88
64889;BME280;51386;53.082;8.816;2023-02-13T01:41:26;103740.69;;;13.60;60.00
64889;BME280;51386;53.082;8.816;2023-02-13T01:43:56;103748.72;;;13.58;60.07
64889;BME280;51386;53.082;8.816;2023-02-13T01:46:28;103744.41;;;13.57;59.96
64889;BME280;51386;53.082;8.816;2023-02-13T01:49:00;103751.59;;;13.55;59.84
64889;BME280;51386;53.082;8.816;2023-02-13T01:51:33;103741.66;;;13.47;60.16
64889;BME280;51386;53.082;8.816;2023-02-13T01:54:06;103733.44;;;13.39;60.21
64889;BME280;51386;53.082;8.816;2023-02-13T01:56:40;103729.38;;;13.35;60.28
64889;BME280;51386;53.082;8.816;2023-02-13T01:59:14;103719.38;;;13.28;60.56
64889;BME280;51386;53.082;8.816;2023-02-13T02:01:43;103711.56;;;13.26;60.67
64889;BME280;51386;53.082;8.816;2023-02-13T02:04:15;103709.88;;;13.25;60.56
64889;BME280;51386;53.082;8.816;2023-02-13T02:06:50;103721.16;;;13.27;60.78
64889;BME280;51386;53.082;8.816;2023-02-13T02:09:22;103718.28;;;13.30;60.72
64889;BME280;51386;53.082;8.816;2023-02-13T02:11:58;103715.75;;;13.29;60.75
64889;BME280;51386;53.082;8.816;2023-02-13T02:14:27;103727.19;;;13.29;60.75
64889;BME280;51386;53.082;8.816;2023-02-13T02:16:54;103717.56;;;13.28;60.78
64889;BME280;51386;53.082;8.816;2023-02-13T02:19:33;103716.84;;;13.26;60.64
64889;BME280;51386;53.082;8.816;2023-02-13T02:22:37;103715.63;;;13.19;60.77
64889;BME280;51386;53.082;8.816;2023-02-13T02:29:17;103703.81;;;13.12;61.00
64889;BME280;51386;53.082;8.816;2023-02-13T02:32:12;103704.69;;;13.13;61.08
64889;BME280;51386;53.082;8.816;2023-02-13T02:34:54;103698.78;;;13.09;61.33
64889;BME280;51386;53.082;8.816;2023-02-13T02:37:43;103707.06;;;13.05;61.28
64889;BME280;51386;53.082;8.816;2023-02-13T02:40:25;103701.38;;;12.98;61.81
64889;BME280;51386;53.082;8.816;2023-02-13T02:43:13;103701.84;;;12.92;61.85
64889;BME280;51386;53.082;8.816;2023-02-13T02:45:53;103696.78;;;12.89;62.07
64889;BME280;51386;53.082;8.816;2023-02-13T02:48:31;103699.91;;;12.83;62.29
64889;BME280;51386;53.082;8.816;2023-02-13T02:51:22;103695.06;;;12.77;62.13
64889;BME280;51386;53.082;8.816;2023-02-13T02:54:00;103682.81;;;12.76;62.34
64889;BME280;51386;53.082;8.816;2023-02-13T02:56:36;103689.06;;;12.75;62.36
64889;BME280;51386;53.082;8.816;2023-02-13T02:59:09;103687.41;;;12.74;62.49
64889;BME280;51386;53.082;8.816;2023-02-13T03:01:57;103690.97;;;12.73;62.62
64889;BME280;51386;53.082;8.816;2023-02-13T03:04:50;103693.63;;;12.73;62.37
64889;BME280;51386;53.082;8.816;2023-02-13T03:07:37;103687.41;;;12.74;62.44
64889;BME280;51386;53.082;8.816;2023-02-13T03:10:08;103690.50;;;12.79;62.35
64889;BME280;51386;53.082;8.816;2023-02-13T03:13:00;103677.19;;;12.80;62.39
64889;BME280;51386;53.082;8.816;2023-02-13T03:15:49;103683.56;;;12.78;62.57
64889;BME280;51386;53.082;8.816;2023-02-13T03:18:39;103682.09;;;12.74;62.52
64889;BME280;51386;53.082;8.816;2023-02-13T03:21:38;103680.63;;;12.70;62.65
64889;BME280;51386;53.082;8.816;2023-02-13T03:24:43;103675.59;;;12.67;62.77
64889;BME280;51386;53.082;8.816;2023-02-13T03:27:38;103680.97;;;12.65;62.95
64889;BME280;51386;53.082;8.816;2023-02-13T03:30:38;103681.34;;;12.72;62.61
64889;BME280;51386;53.082;8.816;2023-02-13T03:33:22;103691.81;;;12.73;62.50
64889;BME280;51386;53.082;8.816;2023-02-13T03:36:03;103689.78;;;12.77;62.96
64889;BME280;51386;53.082;8.816;2023-02-13T03:38:58;103687.97;;;12.77;62.47
64889;BME280;51386;53.082;8.816;2023-02-13T03:41:36;103690.28;;;12.82;62.39
64889;BME280;51386;53.082;8.816;2023-02-13T03:44:12;103681.16;;;12.86;62.44
64889;BME280;51386;53.082;8.816;2023-02-13T03:46:47;103682.63;;;12.90;62.53
64889;BME280;51386;53.082;8.816;2023-02-13T03:49:20;103685.75;;;12.95;62.15
64889;BME280;51386;53.082;8.816;2023-02-13T03:52:14;103693.69;;;12.95;62.13
64889;BME280;51386;53.082;8.816;2023-02-13T03:54:48;103692.34;;;13.01;62.14
64889;BME280;51386;53.082;8.816;2023-02-13T03:57:40;103689.72;;;13.01;61.98
64889;BME280;51386;53.082;8.816;2023-02-13T04:00:34;103692.97;;;12.93;62.09
64889;BME280;51386;53.082;8.816;2023-02-13T04:03:12;103687.53;;;12.83;62.15
64889;BME280;51386;53.082;8.816;2023-02-13T04:05:46;103688.63;;;12.81;62.29
64889;BME280;51386;53.082;8.816;2023-02-13T04:08:14;103685.84;;;12.82;62.37
64889;BME280;51386;53.082;8.816;2023-02-13T04:10:49;103677.56;;;12.87;62.35
64889;BME280;51386;53.082;8.816;2023-02-13T04:13:26;103678.78;;;12.94;62.25
64889;BME280;51386;53.082;8.816;2023-02-13T04:16:00;103680.97;;;13.00;62.09
64889;BME280;51386;53.082;8.816;2023-02-13T04:18:31;103681.44;;;13.05;62.02
64889;BME280;51386;53.082;8.816;2023-02-13T04:21:01;103690.16;;;13.07;62.11
64889;BME280;51386;53.082;8.816;2023-02-13T04:23:29;103698.78;;;13.09;61.88
64889;BME280;51386;53.082;8.816;2023-02-13T04:26:01;103697.00;;;13.10;61.58
64889;BME280;51386;53.082;8.816;2023-02-13T04:28:29;103698.78;;;13.09;61.67
64889;BME280;51386;53.082;8.816;2023-02-13T04:30:56;103689.06;;;13.10;61.45
64889;BME280;51386;53.082;8.816;2023-02-13T04:33:24;103693.25;;;13.12;61.66
64889;BME280;51386;53.082;8.816;2023-02-13T04:35:51;103692.06;;;13.16;61.72
64889;BME280;51386;53.082;8.816;2023-02-13T04:38:18;103691.09;;;13.17;61.55
64889;BME280;51386;53.082;8.816;2023-02-13T04:40:45;103681.13;;;13.21;61.47
64889;BME280;51386;53.082;8.816;2023-02-13T04:43:13;103682.69;;;13.23;61.23
64889;BME280;51386;53.082;8.816;2023-02-13T04:45:40;103685.56;;;13.20;61.36
64889;BME280;51386;53.082;8.816;2023-02-13T04:48:08;103691.94;;;13.18;61.33
64889;BME280;51386;53.082;8.816;2023-02-13T04:50:35;103686.88;;;13.15;61.29
64889;BME280;51386;53.082;8.816;2023-02-13T04:53:02;103685.22;;;13.14;61.38
64889;BME280;51386;53.082;8.816;2023-02-13T04:55:29;103683.16;;;13.17;61.62
64889;BME280;51386;53.082;8.816;2023-02-13T04:57:57;103676.94;;;13.18;61.57
64889;BME280;51386;53.082;8.816;2023-02-13T05:00:28;103685.56;;;13.20;61.41
64889;BME280;51386;53.082;8.816;2023-02-13T05:03:00;103684.63;;;13.21;61.01
64889;BME280;51386;53.082;8.816;2023-02-13T05:05:29;103680.28;;;13.20;60.92
64889;BME280;51386;53.082;8.816;2023-02-13T05:07:56;103677.63;;;13.20;60.97
64889;BME280;51386;53.082;8.816;2023-02-13T05:10:23;103683.78;;;13.21;61.24
64889;BME280;51386;53.082;8.816;2023-02-13T05:12:50;103680.91;;;13.24;61.28
64889;BME280;51386;53.082;8.816;2023-02-13T05:15:17;103688.56;;;13.27;61.03
64889;BME280;51386;53.082;8.816;2023-02-13T05:17:46;103686.78;;;13.27;60.90
64889;BME280;51386;53.082;8.816;2023-02-13T05:20:14;103688.47;;;13.28;60.85
64889;BME280;51386;53.082;8.816;2023-02-13T05:22:45;103690.50;;;13.25;60.93
64889;BME280;51386;53.082;8.816;2023-02-13T05:25:31;103691.59;;;13.22;61.03
64889;BME280;51386;53.082;8.816;2023-02-13T05:27:58;103697.84;;;13.21;60.87
64889;BME280;51386;53.082;8.816;2023-02-13T05:30:25;103685.56;;;13.20;60.81
64889;BME280;51386;53.082;8.816;2023-02-13T05:32:53;103696.16;;;13.20;60.65
64889;BME280;51386;53.082;8.816;2023-02-13T05:35:21;103699.75;;;13.19;60.83
64889;BME280;51386;53.082;8.816;2023-02-13T05:37:49;103694.72;;;13.16;61.02
64889;BME280;51386;53.082;8.816;2023-02-13T05:40:16;103694.00;;;13.14;60.77
64889;BME280;51386;53.082;8.816;2023-02-13T05:42:43;103694.72;;;13.16;60.93
64889;BME280;51386;53.082;8.816;2023-02-13T05:45:10;103697.38;;;13.16;60.98
64889;BME280;51386;53.082;8.816;2023-02-13T05:47:37;103697.38;;;13.16;60.87
64889;BME280;51386;53.082;8.816;2023-02-13T05:50:07;103696.63;;;13.14;60.96
64889;BME280;51386;53.082;8.816;2023-02-13T05:52:34;103698.31;;;13.15;61.06
64889;BME280;51386;53.082;8.816;2023-02-13T05:55:01;103690.28;;;13.17;61.17
64889;BME280;51386;53.082;8.816;2023-02-13T05:57:28;103696.38;;;13.17;61.08
64889;BME280;51386;53.082;8.816;2023-02-13T05:59:55;103691.94;;;13.18;60.84
64889;BME280;51386;53.082;8.816;2023-02-13T06:02:22;103706.75;;;13.20;60.79
64889;BME280;51386;53.082;8.816;2023-02-13T06:04:49;103703.16;;;13.21;60.84
64889;BME280;51386;53.082;8.816;2023-02-13T06:07:18;103701.44;;;13.20;60.68
64889;BME280;51386;53.082;8.816;2023-02-13T06:09:45;103705.78;;;13.21;60.72
64889;BME280;51386;53.082;8.816;2023-02-13T06:12:12;103703.97;;;13.22;60.91
64889;BME280;51386;53.082;8.816;2023-02-13T06:14:39;103705.53;;;13.24;61.02
64889;BME280;51386;53.082;8.816;2023-02-13T06:17:06;103713.38;;;13.26;61.00
64889;BME280;51386;53.082;8.816;2023-02-13T06:19:33;103700.72;;;13.29;61.09
64889;BME280;51386;53.082;8.816;2023-02-13T06:22:00;103706.63;;;13.33;60.89
64889;BME280;51386;53.082;8.816;2023-02-13T06:24:28;103708.44;;;13.32;60.90
64889;BME280;51386;53.082;8.816;2023-02-13T06:26:55;103717.22;;;13.33;60.88
64889;BME280;51386;53.082;8.816;2023-02-13T06:29:23;103719.72;;;13.34;60.54
64889;BME280;51386;53.082;8.816;2023-02-13T06:31:50;103717.09;;;13.34;60.70
64889;BME280;51386;53.082;8.816;2023-02-13T06:34:17;103719.97;;;13.31;60.60
64889;BME280;51386;53.082;8.816;2023-02-13T06:36:46;103719.88;;;13.33;60.76
64889;BME280;51386;53.082;8.816;2023-02-13T06:39:13;103721.44;;;13.35;60.64
64889;BME280;51386;53.082;8.816;2023-02-13T06:41:43;103725.88;;;13.35;60.43
64889;BME280;51386;53.082;8.816;2023-02-13T06:44:10;103728.38;;;13.36;60.54
64889;BME280;51386;53.082;8.816;2023-02-13T06:46:37;103726.47;;;13.38;60.40
64889;BME280;51386;53.082;8.816;2023-02-13T06:49:04;103722.88;;;13.39;60.42
64889;BME280;51386;53.082;8.816;2023-02-13T06:51:31;103728.16;;;13.39;60.30
64889;BME280;51386;53.082;8.816;2023-02-13T06:53:58;103735.38;;;13.37;60.37
64889;BME280;51386;53.082;8.816;2023-02-13T06:56:25;103732.97;;;13.34;60.39
64889;BME280;51386;53.082;8.816;2023-02-13T06:58:53;103733.94;;;13.33;60.27
64889;BME280;51386;53.082;8.816;2023-02-13T07:01:20;103738.25;;;13.34;60.22
64889;BME280;51386;53.082;8.816;2023-02-13T07:03:47;103738.16;;;13.36;60.13
64889;BME280;51386;53.082;8.816;2023-02-13T07:06:17;103753.91;;;13.37;60.12
64889;BME280;51386;53.082;8.816;2023-02-13T07:08:44;103744.88;;;13.40;60.40
64889;BME280;51386;53.082;8.816;2023-02-13T07:11:19;103747.63;;;13.38;60.03
64889;BME280;51386;53.082;8.816;2023-02-13T07:13:46;103750.28;;;13.38;60.14
64889;BME280;51386;53.082;8.816;2023-02-13T07:16:15;103745.81;;;13.39;60.06
64889;BME280;51386;53.082;8.816;2023-02-13T07:18:42;103747.88;;;13.35;60.26
64889;BME280;51386;53.082;8.816;2023-02-13T07:21:09;103745.59;;;13.31;60.24
64889;BME280;51386;53.082;8.816;2023-02-13T07:23:36;103742.34;;;13.27;60.55
64889;BME280;51386;53.082;8.816;2023-02-13T07:26:04;103742.34;;;13.27;60.50
64889;BME280;51386;53.082;8.816;2023-02-13T07:28:32;103739.69;;;13.27;60.43
64889;BME280;51386;53.082;8.816;2023-02-13T07:31:03;103744.97;;;13.27;60.48
64889;BME280;51386;53.082;8.816;2023-02-13T07:33:34;103746.69;;;13.28;60.52
64889;BME280;51386;53.082;8.816;2023-02-13T07:36:01;103747.41;;;13.30;60.57
64889;BME280;51386;53.082;8.816;2023-02-13T07:38:30;103747.88;;;13.35;60.38
64889;BME280;51386;53.082;8.816;2023-02-13T07:40:58;103749.56;;;13.36;60.50
64889;BME280;51386;53.082;8.816;2023-02-13T07:43:25;103751.25;;;13.37;60.42
64889;BME280;51386;53.082;8.816;2023-02-13T07:45:53;103754.63;;;13.39;60.59
64889;BME280;51386;53.082;8.816;2023-02-13T07:48:24;103760.75;;;13.40;60.44
64889;BME280;51386;53.082;8.816;2023-02-13T07:51:00;103768.56;;;13.41;60.55
64889;BME280;51386;53.082;8.816;2023-02-13T07:53:28;103762.06;;;13.45;60.73
64889;BME280;51386;53.082;8.816;2023-02-13T07:56:05;103754.97;;;13.46;60.47
64889;BME280;51386;53.082;8.816;2023-02-13T07:58:58;103758.69;;;13.43;60.38
64889;BME280;51386;53.082;8.816;2023-02-13T08:01:25;103755.81;;;13.46;60.83
64889;BME280;51386;53.082;8.816;2023-02-13T08:03:52;103749.22;;;13.52;60.87
64889;BME280;51386;53.082;8.816;2023-02-13T08:06:21;103749.72;;;13.57;60.60
64889;BME280;51386;53.082;8.816;2023-02-13T08:08:48;103751.16;;;13.61;60.67
64889;BME280;51386;53.082;8.816;2023-02-13T08:11:35;103751.03;;;13.63;60.60
64889;BME280;51386;53.082;8.816;2023-02-13T08:14:24;103751.16;;;13.61;60.42
64889;BME280;51386;53.082;8.816;2023-02-13T08:16:53;103749.44;;;13.60;60.30
64889;BME280;51386;53.082;8.816;2023-02-13T08:19:20;103746.09;;;13.58;60.46
64889;BME280;51386;53.082;8.816;2023-02-13T08:21:49;103747.06;;;13.57;60.29
64889;BME280;51386;53.082;8.816;2023-02-13T08:24:17;103750.44;;;13.59;60.63
64889;BME280;51386;53.082;8.816;2023-02-13T08:26:46;103747.66;;;13.61;60.62
64889;BME280;51386;53.082;8.816;2023-02-13T08:29:13;103745.50;;;13.66;60.65
64889;BME280;51386;53.082;8.816;2023-02-13T08:31:42;103755.84;;;13.69;60.40
64889;BME280;51386;53.082;8.816;2023-02-13T08:34:10;103752.22;;;13.70;60.48
64889;BME280;51386;53.082;8.816;2023-02-13T08:36:37;103760.88;;;13.72;60.50
64889;BME280;51386;53.082;8.816;2023-02-13T08:39:07;103749.97;;;13.76;60.38
64889;BME280;51386;53.082;8.816;2023-02-13T08:41:34;103749.81;;;13.78;60.52
64889;BME280;51386;53.082;8.816;2023-02-13T08:44:04;103760.19;;;13.81;60.77
64889;BME280;51386;53.082;8.816;2023-02-13T08:46:31;103756.44;;;13.83;60.36
64889;BME280;51386;53.082;8.816;2023-02-13T08:48:58;103757.75;;;13.89;60.39
64889;BME280;51386;53.082;8.816;2023-02-13T08:51:25;103763.66;;;13.92;60.24
64889;BME280;51386;53.082;8.816;2023-02-13T08:53:52;103763.66;;;13.92;60.10
64889;BME280;51386;53.082;8.816;2023-02-13T08:56:20;103757.28;;;13.95;60.25
64889;BME280;51386;53.082;8.816;2023-02-13T08:58:48;103758.72;;;13.99;60.70
64889;BME280;51386;53.082;8.816;2023-02-13T09:01:15;103763.50;;;14.05;60.47
64889;BME280;51386;53.082;8.816;2023-02-13T09:03:43;103763.88;;;14.11;60.47
64889;BME280;51386;53.082;8.816;2023-02-13T09:06:10;103771.44;;;14.16;60.13
64889;BME280;51386;53.082;8.816;2023-02-13T09:08:38;103772.88;;;14.20;60.07
64889;BME280;51386;53.082;8.816;2023-02-13T09:11:05;103770.09;;;14.21;59.92
64889;BME280;51386;53.082;8.816;2023-02-13T09:13:35;103775.41;;;14.21;59.92
64889;BME280;51386;53.082;8.816;2023-02-13T09:16:05;103783.25;;;14.23;59.98
64889;BME280;51386;53.082;8.816;2023-02-13T09:18:33;103777.69;;;14.26;59.62
64889;BME280;51386;53.082;8.816;2023-02-13T09:21:04;103771.66;;;14.24;59.29
64889;BME280;51386;53.082;8.816;2023-02-13T09:23:32;103770.72;;;14.25;59.53
64889;BME280;51386;53.082;8.816;2023-02-13T09:26:03;103772.25;;;14.27;59.62
64889;BME280;51386;53.082;8.816;2023-02-13T09:28:32;103778.41;;;14.28;59.41
64889;BME280;51386;53.082;8.816;2023-02-13T09:31:05;103776.00;;;14.25;59.21
64889;BME280;51386;53.082;8.816;2023-02-13T09:33:32;103772.41;;;14.26;59.25
64889;BME280;51386;53.082;8.816;2023-02-13T09:36:04;103773.72;;;14.32;59.56
64889;BME280;51386;53.082;8.816;2023-02-13T09:38:31;103767.34;;;14.34;59.56
64889;BME280;51386;53.082;8.816;2023-02-13T09:41:03;103766.38;;;14.35;59.07
64889;BME280;51386;53.082;8.816;2023-02-13T09:43:35;103764.13;;;14.31;59.16
64889;BME280;51386;53.082;8.816;2023-02-13T09:46:13;103764.56;;;14.24;59.28
64889;BME280;51386;53.082;8.816;2023-02-13T09:48:48;103772.41;;;14.26;59.23
64889;BME280;51386;53.082;8.816;2023-02-13T09:51:20;103762.38;;;14.30;59.62
64889;BME280;51386;53.082;8.816;2023-02-13T09:53:54;103763.75;;;14.35;59.24
64889;BME280;51386;53.082;8.816;2023-02-13T09:56:38;103766.97;;;14.39;59.54
64889;BME280;51386;53.082;8.816;2023-02-13T09:59:22;103773.81;;;14.41;59.06
64889;BME280;51386;53.082;8.816;2023-02-13T10:01:56;103770.31;;;14.41;58.92
64889;BME280;51386;53.082;8.816;2023-02-13T10:04:35;103773.81;;;14.41;59.08
64889;BME280;51386;53.082;8.816;2023-02-13T10:07:21;103772.88;;;14.42;59.00
64889;BME280;51386;53.082;8.816;2023-02-13T10:09:58;103777.94;;;14.45;59.01
64889;BME280;51386;53.082;8.816;2023-02-13T10:12:56;103778.75;;;14.46;58.88
64889;BME280;51386;53.082;8.816;2023-02-13T10:15:37;103781.28;;;14.47;58.84
64889;BME280;51386;53.082;8.816;2023-02-13T10:18:13;103772.97;;;14.52;58.98
64889;BME280;51386;53.082;8.816;2023-02-13T10:20:46;103776.91;;;14.57;59.03
64889;BME280;51386;53.082;8.816;2023-02-13T10:23:23;103780.03;;;14.62;59.24
64889;BME280;51386;53.082;8.816;2023-02-13T10:25:57;103785.31;;;14.62;58.51
64889;BME280;51386;53.082;8.816;2023-02-13T10:28:33;103783.91;;;14.58;58.58
64889;BME280;51386;53.082;8.816;2023-02-13T10:31:07;103784.13;;;14.55;58.65
64889;BME280;51386;53.082;8.816;2023-02-13T10:33:47;103782.47;;;14.54;58.70
64889;BME280;51386;53.082;8.816;2023-02-13T10:36:18;103778.59;;;14.58;58.64
64889;BME280;51386;53.082;8.816;2023-02-13T10:38:56;103787.50;;;14.57;58.60
64889;BME280;51386;53.082;8.816;2023-02-13T10:41:41;103785.00;;;14.56;58.32
64889;BME280;51386;53.082;8.816;2023-02-13T10:44:35;103780.06;;;14.51;58.14
64889;BME280;51386;53.082;8.816;2023-02-13T10:47:22;103781.03;;;14.50;58.08
64889;BME280;51386;53.082;8.816;2023-02-13T10:50:08;103788.97;;;14.50;58.04
64889;BME280;51386;53.082;8.816;2023-02-13T10:52:49;103786.59;;;14.47;58.25
64889;BME280;51386;53.082;8.816;2023-02-13T10:58:39;103775.72;;;14.50;58.30
64889;BME280;51386;53.082;8.816;2023-02-13T11:01:16;103780.53;;;14.56;58.49
64889;BME280;51386;53.082;8.816;2023-02-13T11:03:46;103764.38;;;14.59;58.32
64889;BME280;51386;53.082;8.816;2023-02-13T11:06:17;103766.06;;;14.60;58.19
64889;BME280;51386;53.082;8.816;2023-02-13T11:08:47;103766.06;;;14.60;57.96
64889;BME280;51386;53.082;8.816;2023-02-13T11:11:31;103756.53;;;14.58;57.85
64889;BME280;51386;53.082;8.816;2023-02-13T11:14:11;103753.50;;;14.62;58.20
64889;BME280;51386;53.082;8.816;2023-02-13T11:16:43;103744.94;;;14.70;57.68
64889;BME280;51386;53.082;8.816;2023-02-13T11:19:21;103742.88;;;14.73;57.82
64889;BME280;51386;53.082;8.816;2023-02-13T11:21:57;103751.16;;;14.80;57.64
64889;BME280;51386;53.082;8.816;2023-02-13T11:24:27;103750.63;;;14.86;57.69
64889;BME280;51386;53.082;8.816;2023-02-13T11:27:02;103744.38;;;14.87;57.21
64889;BME280;51386;53.082;8.816;2023-02-13T11:29:36;103743.53;;;14.86;57.21
64889;BME280;51386;53.082;8.816;2023-02-13T11:32:17;103747.41;;;14.82;57.10
64889;BME280;51386;53.082;8.816;2023-02-13T11:34:46;103747.41;;;14.82;57.03
64889;BME280;51386;53.082;8.816;2023-02-13T11:37:22;103750.31;;;14.79;57.01
64889;BME280;51386;53.082;8.816;2023-02-13T11:39:52;103739.69;;;14.79;56.71
64889;BME280;51386;53.082;8.816;2023-02-13T11:42:27;103734.25;;;14.81;57.03
64889;BME280;51386;53.082;8.816;2023-02-13T11:44:58;103730.25;;;14.86;57.26
64889;BME280;51386;53.082;8.816;2023-02-13T11:47:38;103728.06;;;14.91;56.97
64889;BME280;51386;53.082;8.816;2023-02-13T11:50:21;103727.81;;;14.95;56.91
64889;BME280;51386;53.082;8.816;2023-02-13T11:52:58;103723.94;;;14.99;56.79
64889;BME280;51386;53.082;8.816;2023-02-13T11:55:32;103731.31;;;14.95;56.69
64889;BME280;51386;53.082;8.816;2023-02-13T11:58:02;103737.72;;;14.93;56.74
64889;BME280;51386;53.082;8.816;2023-02-13T12:00:34;103733.97;;;14.95;56.48
64889;BME280;51386;53.082;8.816;2023-02-13T12:03:27;103733.69;;;14.98;56.66
64889;BME280;51386;53.082;8.816;2023-02-13T12:06:05;103739.84;;;14.99;56.23
64889;BME280;51386;53.082;8.816;2023-02-13T12:08:36;103738.16;;;14.98;56.15
64889;BME280;51386;53.082;8.816;2023-02-13T12:11:17;103747.34;;;14.93;55.83
64889;BME280;51386;53.082;8.816;2023-02-13T12:13:47;103746.38;;;14.95;55.87
64889;BME280;51386;53.082;8.816;2023-02-13T12:16:30;103745.41;;;14.96;55.94
64889;BME280;51386;53.082;8.816;2023-02-13T12:19:09;103740.69;;;14.99;55.93
64889;BME280;51386;53.082;8.816;2023-02-13T12:22:00;103739.44;;;15.03;55.98
64889;BME280;51386;53.082;8.816;2023-02-13T12:25:16;103724.38;;;15.04;55.44
64889;BME280;51386;53.082;8.816;2023-02-13T12:28:06;103723.13;;;15.08;55.33
64889;BME280;51386;53.082;8.816;2023-02-13T12:31:05;103723.41;;;15.05;55.29
64889;BME280;51386;53.082;8.816;2023-02-13T12:34:01;103720.31;;;15.00;55.17
64889;BME280;51386;53.082;8.816;2023-02-13T12:36:45;103715.81;;;15.00;55.34
64889;BME280;51386;53.082;8.816;2023-02-13T12:39:24;103711.38;;;15.01;55.40
64889;BME280;51386;53.082;8.816;2023-02-13T12:42:15;103710.81;;;14.97;54.92
64889;BME280;51386;53.082;8.816;2023-02-13T12:45:15;103719.41;;;14.89;54.42
64889;BME280;51386;53.082;8.816;2023-02-13T12:48:08;103719.66;;;14.86;54.75
64889;BME280;51386;53.082;8.816;2023-02-13T12:50:54;103709.88;;;14.87;55.14
64889;BME280;51386;53.082;8.816;2023-02-13T12:53:43;103707.00;;;14.90;55.23
64889;BME280;51386;53.082;8.816;2023-02-13T12:56:55;103698.19;;;14.89;54.83
64889;BME280;51386;53.082;8.816;2023-02-13T12:59:41;103692.75;;;14.91;54.50
64889;BME280;51386;53.082;8.816;2023-02-13T13:02:56;103691.88;;;14.90;54.66
64889;BME280;51386;53.082;8.816;2023-02-13T13:05:45;103689.97;;;14.93;54.77
64889;BME280;51386;53.082;8.816;2023-02-13T13:08:49;103687.31;;;14.93;54.34
64889;BME280;51386;53.082;8.816;2023-02-13T13:11:44;103688.41;;;14.90;54.44
64889;BME280;51386;53.082;8.816;2023-02-13T13:14:26;103683.94;;;14.90;53.99
64889;BME280;51386;53.082;8.816;2023-02-13T13:17:05;103689.25;;;14.90;53.91
64889;BME280;51386;53.082;8.816;2023-02-13T13:19:41;103685.06;;;14.88;53.62
64889;BME280;51386;53.082;8.816;2023-02-13T13:22:17;103690.47;;;14.86;53.48
64889;BME280;51386;53.082;8.816;2023-02-13T13:24:59;103690.63;;;14.85;53.59
64889;BME280;51386;53.082;8.816;2023-02-13T13:27:35;103690.63;;;14.85;53.59
64889;BME280;51386;53.082;8.816;2023-02-13T13:30:15;103690.03;;;14.81;53.10
64889;BME280;51386;53.082;8.816;2023-02-13T13:32:44;103681.59;;;14.76;53.49